createdAt,value
2022-10-17T00:01:52.406Z,11.27
2022-10-17T00:04:19.731Z,11.60
2022-10-17T00:06:46.989Z,12.07
2022-10-17T00:09:14.239Z,12.43
2022-10-17T00:11:41.510Z,12.18
2022-10-17T00:14:08.793Z,10.35
2022-10-17T00:16:37.635Z,10.40
2022-10-17T00:19:05.855Z,10.80
2022-10-17T00:21:33.266Z,9.68
2022-10-17T00:24:00.819Z,9.27
2022-10-17T00:26:31.435Z,9.38
2022-10-17T00:28:58.795Z,10.38
2022-10-17T00:31:26.397Z,10.90
2022-10-17T00:33:53.968Z,12.63
2022-10-17T00:36:22.943Z,10.23
2022-10-17T00:38:51.753Z,10.70
2022-10-17T00:41:20.308Z,9.18
2022-10-17T00:43:54.921Z,6.63
2022-10-17T00:46:23.310Z,12.18
2022-10-17T00:48:51.677Z,11.65
2022-10-17T00:51:20.557Z,9.30
2022-10-17T00:53:47.992Z,9.02
2022-10-17T00:56:16.121Z,11.43
2022-10-17T00:58:43.399Z,8.05
2022-10-17T01:01:10.792Z,8.85
2022-10-17T01:03:38.102Z,8.82
2022-10-17T01:06:05.431Z,7.90
2022-10-17T01:08:32.810Z,17.80
2022-10-17T01:11:23.019Z,10.82
2022-10-17T01:13:57.961Z,7.70
2022-10-17T01:16:44.074Z,10.93
2022-10-17T01:21:55.330Z,9.15
2022-10-17T01:24:41.301Z,9.60
2022-10-17T01:27:11.267Z,10.65
2022-10-17T01:29:53.659Z,12.98
2022-10-17T01:32:23.835Z,9.20
2022-10-17T01:35:09.481Z,8.57
2022-10-17T01:37:48.917Z,9.30
2022-10-17T01:40:26.269Z,16.30
2022-10-17T01:43:02.693Z,12.88
2022-10-17T01:45:35.319Z,9.27
2022-10-17T01:48:06.443Z,7.93
2022-10-17T01:53:11.587Z,8.38
2022-10-17T01:55:41.387Z,10.07
2022-10-17T01:58:11.492Z,18.67
2022-10-17T02:00:41.455Z,12.45
2022-10-17T02:03:10.609Z,12.45
2022-10-17T02:05:40.901Z,7.75
2022-10-17T02:08:08.488Z,10.20
2022-10-17T02:10:50.502Z,6.65
2022-10-17T02:13:17.743Z,13.65
2022-10-17T02:16:14.426Z,10.27
2022-10-17T02:18:47.763Z,9.55
2022-10-17T02:21:21.027Z,10.60
2022-10-17T02:23:48.247Z,11.18
2022-10-17T02:26:18.188Z,8.57
2022-10-17T02:28:53.422Z,8.48
2022-10-17T02:31:26.199Z,9.98
2022-10-17T02:33:59.896Z,8.98
2022-10-17T02:36:29.943Z,15.80
2022-10-17T02:38:57.424Z,9.07
2022-10-17T02:41:25.408Z,10.35
2022-10-17T02:43:55.636Z,10.27
2022-10-17T02:49:00.038Z,10.10
2022-10-17T02:51:33.612Z,13.73
2022-10-17T02:54:12.767Z,8.45
2022-10-17T02:56:44.906Z,9.23
2022-10-17T02:59:14.912Z,9.70
2022-10-17T03:01:42.612Z,11.68
2022-10-17T03:04:11.098Z,8.27
2022-10-17T03:06:38.485Z,11.15
2022-10-17T03:09:06.072Z,7.60
2022-10-17T03:11:33.339Z,13.88
2022-10-17T03:14:00.592Z,12.07
2022-10-17T03:16:27.940Z,11.15
2022-10-17T03:18:55.282Z,16.45
2022-10-17T03:21:22.569Z,7.55
2022-10-17T03:23:49.845Z,11.73
2022-10-17T03:26:17.085Z,14.23
2022-10-17T03:28:44.436Z,11.50
2022-10-17T03:31:13.538Z,6.35
2022-10-17T03:33:40.762Z,12.63
2022-10-17T03:36:08.903Z,10.75
2022-10-17T03:38:36.218Z,10.90
2022-10-17T03:41:03.947Z,10.88
2022-10-17T03:43:31.321Z,12.38
2022-10-17T03:45:59.555Z,12.80
2022-10-17T03:48:27.361Z,15.07
2022-10-17T03:50:59.614Z,13.77
2022-10-17T03:53:26.857Z,15.95
2022-10-17T03:55:54.074Z,11.75
2022-10-17T03:58:21.419Z,14.93
2022-10-17T04:00:48.686Z,14.13
2022-10-17T04:03:17.383Z,10.98
2022-10-17T04:05:44.829Z,16.35
2022-10-17T04:08:12.133Z,8.18
2022-10-17T04:10:39.496Z,9.50
2022-10-17T04:13:06.874Z,9.68
2022-10-17T04:15:34.119Z,8.63
2022-10-17T04:18:01.379Z,12.23
2022-10-17T04:20:28.613Z,18.40
2022-10-17T04:22:55.858Z,11.93
2022-10-17T04:25:23.097Z,21.30
2022-10-17T04:27:50.368Z,15.02
2022-10-17T04:30:18.172Z,19.05
2022-10-17T04:32:45.516Z,12.50
2022-10-17T04:35:12.794Z,21.27
2022-10-17T04:37:40.094Z,13.55
2022-10-17T04:40:07.664Z,13.55
2022-10-17T04:42:34.971Z,15.75
2022-10-17T04:45:02.301Z,11.57
2022-10-17T04:47:29.555Z,15.65
2022-10-17T04:49:56.832Z,14.00
2022-10-17T04:52:25.249Z,18.85
2022-10-17T04:54:52.495Z,15.75
2022-10-17T04:57:20.154Z,14.30
2022-10-17T04:59:47.408Z,18.65
2022-10-17T05:02:14.711Z,17.27
2022-10-17T05:04:41.932Z,15.05
2022-10-17T05:07:09.186Z,14.38
2022-10-17T05:09:36.534Z,15.70
2022-10-17T05:12:05.461Z,15.82
2022-10-17T05:14:35.302Z,14.75
2022-10-17T05:17:02.557Z,19.08
2022-10-17T05:19:29.822Z,14.90
2022-10-17T05:21:57.090Z,16.27
2022-10-17T05:24:24.359Z,15.15
2022-10-17T05:26:52.197Z,17.65
2022-10-17T05:29:19.518Z,15.63
2022-10-17T05:31:46.727Z,15.00
2022-10-17T05:34:14.157Z,11.80
2022-10-17T05:36:41.419Z,15.70
2022-10-17T05:39:08.968Z,16.10
2022-10-17T05:41:36.225Z,16.42
2022-10-17T05:44:05.512Z,19.30
2022-10-17T05:46:33.092Z,9.85
2022-10-17T05:49:00.406Z,11.73
2022-10-17T05:51:27.754Z,12.85
2022-10-17T05:53:55.014Z,13.10
2022-10-17T05:56:22.334Z,18.83
2022-10-17T05:58:51.566Z,16.27
2022-10-17T06:01:20.667Z,17.02
2022-10-17T06:03:47.939Z,20.23
2022-10-17T06:06:15.665Z,14.05
2022-10-17T06:08:42.937Z,15.80
2022-10-17T06:11:10.787Z,19.13
2022-10-17T06:13:38.446Z,12.90
2022-10-17T06:16:05.919Z,17.13
2022-10-17T06:18:33.206Z,13.77
2022-10-17T06:21:04.934Z,20.48
2022-10-17T06:23:32.308Z,12.50
2022-10-17T06:26:03.063Z,16.95
2022-10-17T06:28:30.402Z,19.25
2022-10-17T06:30:57.689Z,14.55
2022-10-17T06:33:25.059Z,18.65
2022-10-17T06:35:55.911Z,13.18
2022-10-17T06:38:23.710Z,16.83
2022-10-17T06:40:51.053Z,10.90
2022-10-17T06:43:18.391Z,18.58
2022-10-17T06:45:47.598Z,17.30
2022-10-17T06:48:15.394Z,19.95
2022-10-17T06:50:42.624Z,9.95
2022-10-17T06:53:09.914Z,16.73
2022-10-17T06:55:37.127Z,14.30
2022-10-17T06:58:04.365Z,12.77
2022-10-17T07:00:31.630Z,13.23
2022-10-17T07:02:58.908Z,14.10
2022-10-17T07:05:26.174Z,17.35
2022-10-17T07:07:53.490Z,15.32
2022-10-17T07:10:20.852Z,16.55
2022-10-17T07:12:48.333Z,15.90
2022-10-17T07:15:15.625Z,14.85
2022-10-17T07:17:42.929Z,18.60
2022-10-17T07:20:13.084Z,13.43
2022-10-17T07:22:40.428Z,14.68
2022-10-17T07:25:08.055Z,13.27
2022-10-17T07:27:35.297Z,18.63
2022-10-17T07:30:02.562Z,14.55
2022-10-17T07:32:29.819Z,16.13
2022-10-17T07:34:57.065Z,13.80
2022-10-17T07:37:24.291Z,11.60
2022-10-17T07:39:51.690Z,14.30
2022-10-17T07:42:18.925Z,14.80
2022-10-17T07:44:47.612Z,14.30
2022-10-17T07:47:14.879Z,15.82
2022-10-17T07:49:44.146Z,17.13
2022-10-17T07:52:15.280Z,19.63
2022-10-17T07:57:10.185Z,14.88
2022-10-17T07:59:38.610Z,17.77
2022-10-17T08:02:08.140Z,15.98
2022-10-17T08:04:36.547Z,10.27
2022-10-17T08:07:19.629Z,15.57
2022-10-17T08:09:49.296Z,12.25
2022-10-17T08:12:16.669Z,16.08
2022-10-17T08:14:44.434Z,10.70
2022-10-17T08:17:11.728Z,14.35
2022-10-17T08:19:40.375Z,12.13
2022-10-17T08:22:08.091Z,15.70
2022-10-17T08:24:38.035Z,15.75
2022-10-17T08:27:11.493Z,12.98
2022-10-17T08:29:39.339Z,11.13
2022-10-17T08:32:09.724Z,15.75
2022-10-17T08:34:37.480Z,13.10
2022-10-17T08:37:04.839Z,16.15
2022-10-17T08:39:32.082Z,13.45
2022-10-17T08:42:06.785Z,16.02
2022-10-17T08:44:45.939Z,14.35
2022-10-17T08:47:29.752Z,20.20
2022-10-17T08:49:58.320Z,25.38
2022-10-17T08:52:25.585Z,18.55
2022-10-17T08:54:52.853Z,16.17
2022-10-17T08:57:20.152Z,13.23
2022-10-17T08:59:52.163Z,24.80
2022-10-17T09:02:26.432Z,20.40
2022-10-17T09:05:08.902Z,15.02
2022-10-17T09:07:36.118Z,11.70
2022-10-17T09:10:03.332Z,14.48
2022-10-17T09:12:33.331Z,11.88
2022-10-17T09:15:06.381Z,13.93
2022-10-17T09:17:54.152Z,10.77
2022-10-17T09:20:24.222Z,9.80
2022-10-17T09:23:01.964Z,7.95
2022-10-17T09:25:29.481Z,9.25
2022-10-17T09:27:59.852Z,15.32
2022-10-17T09:30:46.003Z,13.13
2022-10-17T09:33:35.684Z,9.63
2022-10-17T09:36:28.937Z,10.73
2022-10-17T09:38:57.488Z,13.43
2022-10-17T09:44:22.939Z,11.82
2022-10-17T09:46:57.510Z,8.68
2022-10-17T09:49:30.125Z,9.13
2022-10-17T09:51:57.974Z,11.43
2022-10-17T09:54:27.592Z,7.82
2022-10-17T09:56:59.182Z,7.50
2022-10-17T09:59:49.813Z,10.60
2022-10-17T10:02:18.851Z,10.23
2022-10-17T10:05:03.603Z,8.15
2022-10-17T10:07:33.040Z,7.57
2022-10-17T10:10:01.965Z,10.80
2022-10-17T10:12:31.499Z,6.32
2022-10-17T10:14:59.380Z,7.90
2022-10-17T10:17:28.745Z,7.13
2022-10-17T10:19:56.553Z,6.75
2022-10-17T10:22:23.975Z,8.77
2022-10-17T10:25:09.975Z,9.23
2022-10-17T10:27:37.593Z,7.07
2022-10-17T10:30:05.329Z,5.93
2022-10-17T10:32:34.030Z,11.40
2022-10-17T10:35:08.652Z,6.82
2022-10-17T10:37:38.970Z,7.65
2022-10-17T10:40:20.995Z,8.18
2022-10-17T10:42:50.206Z,7.55
2022-10-17T10:45:42.892Z,5.97
2022-10-17T10:48:26.663Z,10.35
2022-10-17T10:50:58.713Z,6.20
2022-10-17T10:53:35.631Z,7.30
2022-10-17T10:56:11.769Z,6.85
2022-10-17T10:58:51.025Z,9.52
2022-10-17T11:01:23.216Z,8.95
2022-10-17T11:03:50.563Z,9.82
2022-10-17T11:06:21.287Z,6.25
2022-10-17T11:08:48.574Z,7.78
2022-10-17T11:11:19.616Z,7.40
2022-10-17T11:13:53.306Z,9.38
2022-10-17T11:16:23.698Z,11.68
2022-10-17T11:18:53.190Z,6.57
2022-10-17T11:21:25.611Z,7.57
2022-10-17T11:24:11.460Z,8.80
2022-10-17T11:26:46.027Z,8.07
2022-10-17T11:29:13.918Z,6.82
2022-10-17T11:31:44.240Z,7.10
2022-10-17T11:34:19.599Z,7.28
2022-10-17T11:36:48.744Z,4.78
2022-10-17T11:39:18.767Z,8.88
2022-10-17T11:41:55.482Z,6.07
2022-10-17T11:44:30.608Z,7.05
2022-10-17T11:47:03.554Z,10.10
2022-10-17T11:49:42.278Z,6.85
2022-10-17T11:52:09.906Z,7.97
2022-10-17T11:54:42.341Z,8.13
2022-10-17T11:57:20.514Z,8.57
2022-10-17T11:59:58.242Z,8.35
2022-10-17T12:02:34.619Z,7.72
2022-10-17T12:05:10.899Z,12.13
2022-10-17T12:07:48.139Z,17.45
2022-10-17T12:10:33.804Z,7.60
2022-10-17T12:13:20.015Z,8.15
2022-10-17T12:15:47.231Z,9.05
2022-10-17T12:18:20.313Z,9.43
2022-10-17T12:21:00.645Z,9.02
2022-10-17T12:23:32.590Z,29.17
2022-10-17T12:26:04.506Z,11.10
2022-10-17T12:28:43.166Z,9.30
2022-10-17T12:31:17.598Z,21.67
2022-10-17T12:33:52.822Z,9.95
2022-10-17T12:36:23.067Z,12.80
2022-10-17T12:38:50.438Z,8.23
2022-10-17T12:41:18.373Z,12.98
2022-10-17T12:46:37.725Z,9.02
2022-10-17T12:49:05.479Z,8.98
2022-10-17T12:51:52.672Z,10.80
2022-10-17T12:54:20.012Z,8.48
2022-10-17T12:56:48.511Z,10.73
2022-10-17T12:59:22.014Z,13.45
2022-10-17T13:01:50.700Z,11.32
2022-10-17T13:04:18.559Z,6.03
2022-10-17T13:06:48.219Z,11.25
2022-10-17T13:09:23.356Z,13.35
2022-10-17T13:11:50.828Z,12.70
2022-10-17T13:14:19.645Z,11.50
2022-10-17T13:16:54.836Z,10.98
2022-10-17T13:19:23.889Z,9.15
2022-10-17T13:21:53.447Z,9.88
2022-10-17T13:24:29.233Z,11.95
2022-10-17T13:26:56.793Z,6.57
2022-10-17T13:29:25.886Z,6.95
2022-10-17T13:31:54.746Z,10.65
2022-10-17T13:34:23.748Z,12.70
2022-10-17T13:37:04.947Z,12.35
2022-10-17T13:39:55.178Z,13.02
2022-10-17T13:42:23.478Z,16.05
2022-10-17T13:44:50.792Z,14.93
2022-10-17T13:47:24.895Z,7.50
2022-10-17T13:49:55.179Z,10.02
2022-10-17T13:52:24.257Z,10.25
2022-10-17T13:54:53.720Z,12.23
2022-10-17T13:57:26.341Z,8.90
2022-10-17T13:59:58.686Z,10.45
2022-10-17T14:02:29.963Z,10.07
2022-10-17T14:05:16.805Z,10.75
2022-10-17T14:10:41.294Z,12.85
2022-10-17T14:13:09.291Z,12.75
2022-10-17T14:15:37.619Z,12.70
2022-10-17T14:18:07.963Z,10.70
2022-10-17T14:23:30.328Z,19.92
2022-10-17T14:26:21.550Z,9.77
2022-10-17T14:29:03.396Z,10.52
2022-10-17T14:31:33.107Z,7.07
2022-10-17T14:34:01.176Z,7.68
2022-10-17T14:36:33.502Z,13.40
2022-10-17T14:39:01.873Z,9.13
2022-10-17T14:41:47.569Z,12.45
2022-10-17T14:44:17.657Z,11.07
2022-10-17T14:46:50.441Z,12.30
2022-10-17T14:49:24.258Z,11.25
2022-10-17T14:52:14.939Z,12.63
2022-10-17T14:54:48.674Z,8.60
2022-10-17T14:57:18.611Z,11.68
2022-10-17T14:59:54.779Z,10.75
2022-10-17T15:02:22.944Z,9.43
2022-10-17T15:04:50.226Z,15.30
2022-10-17T15:07:18.347Z,13.73
2022-10-17T15:09:46.119Z,13.40
2022-10-17T15:12:17.460Z,11.45
2022-10-17T15:14:47.425Z,15.10
2022-10-17T15:17:20.737Z,14.43
2022-10-17T15:19:48.564Z,11.77
2022-10-17T15:22:16.392Z,11.38
2022-10-17T15:24:43.833Z,11.57
2022-10-17T15:27:17.879Z,12.25
2022-10-17T15:29:45.405Z,12.38
2022-10-17T15:32:13.074Z,14.73
2022-10-17T15:34:40.560Z,7.47
2022-10-17T15:37:14.232Z,14.88
2022-10-17T15:39:41.489Z,17.65
2022-10-17T15:42:12.657Z,14.10
2022-10-17T15:47:22.292Z,12.18
2022-10-17T15:49:49.536Z,13.00
2022-10-17T15:52:16.822Z,9.77
2022-10-17T15:54:44.301Z,14.70
2022-10-17T15:57:17.206Z,10.45
2022-10-17T15:59:46.930Z,15.07
2022-10-17T16:02:15.487Z,11.30
2022-10-17T16:04:43.117Z,10.48
2022-10-17T16:07:10.753Z,10.30
2022-10-17T16:09:38.147Z,16.65
2022-10-17T16:12:06.788Z,16.75
2022-10-17T16:14:34.296Z,15.38
2022-10-17T16:17:01.753Z,11.57
2022-10-17T16:19:30.146Z,18.65
2022-10-17T16:22:00.769Z,20.10
2022-10-17T16:24:30.929Z,16.33
2022-10-17T16:26:58.174Z,25.90
2022-10-17T16:29:25.423Z,22.55
2022-10-17T16:31:52.666Z,18.30
2022-10-17T16:34:19.897Z,21.52
2022-10-17T16:36:47.166Z,21.85
2022-10-17T16:39:14.462Z,24.27
2022-10-17T16:41:41.850Z,17.80
2022-10-17T16:44:13.005Z,18.90
2022-10-17T16:49:08.266Z,20.70
2022-10-17T16:51:36.178Z,22.15
2022-10-17T16:54:04.647Z,18.42
2022-10-17T16:56:33.036Z,16.58
2022-10-17T16:59:01.005Z,19.30
2022-10-17T17:01:32.271Z,20.23
2022-10-17T17:03:59.943Z,22.50
2022-10-17T17:06:28.907Z,17.17
2022-10-17T17:08:56.521Z,22.80
2022-10-17T17:11:24.758Z,15.35
2022-10-17T17:13:52.062Z,15.48
2022-10-17T17:16:23.547Z,17.15
2022-10-17T17:18:54.336Z,13.80
2022-10-17T17:21:21.578Z,16.15
2022-10-17T17:23:48.880Z,20.10
2022-10-17T17:26:23.502Z,20.88
2022-10-17T17:28:51.213Z,21.30
2022-10-17T17:31:20.562Z,24.55
2022-10-17T17:33:48.351Z,17.88
2022-10-17T17:36:23.249Z,19.95
2022-10-17T17:38:51.025Z,16.95
2022-10-17T17:41:19.568Z,22.60
2022-10-17T17:43:47.736Z,21.15
2022-10-17T17:46:16.722Z,18.63
2022-10-17T17:48:44.525Z,24.08
2022-10-17T17:51:12.584Z,31.90
2022-10-17T17:53:40.302Z,50.33
2022-10-17T17:56:07.690Z,30.05
2022-10-17T17:58:35.568Z,21.60
2022-10-17T18:03:35.264Z,27.98
2022-10-17T18:06:02.480Z,34.83
2022-10-17T18:08:30.189Z,24.08
2022-10-17T18:11:00.010Z,30.13
2022-10-17T18:13:27.365Z,24.33
2022-10-17T18:15:58.329Z,26.27
2022-10-17T18:18:26.462Z,23.77
2022-10-17T18:20:54.616Z,29.25
2022-10-17T18:23:24.815Z,16.17
2022-10-17T18:26:00.841Z,22.85
2022-10-17T18:28:28.512Z,25.05
2022-10-17T18:30:58.110Z,32.90
2022-10-17T18:33:25.594Z,25.27
2022-10-17T18:35:55.951Z,27.58
2022-10-17T18:38:25.367Z,30.23
2022-10-17T18:41:02.269Z,24.15
2022-10-17T18:43:29.511Z,14.80
2022-10-17T18:45:57.505Z,15.18
2022-10-17T18:48:24.759Z,16.02
2022-10-17T18:50:52.106Z,15.13
2022-10-17T18:53:19.327Z,15.90
2022-10-17T18:58:19.699Z,16.45
2022-10-17T19:00:47.147Z,18.40
2022-10-17T19:03:14.663Z,20.02
2022-10-17T19:05:45.156Z,17.33
2022-10-17T19:08:13.594Z,13.70
2022-10-17T19:10:41.752Z,16.67
2022-10-17T19:13:12.033Z,21.38
2022-10-17T19:15:39.787Z,17.83
2022-10-17T19:18:07.178Z,18.33
2022-10-17T19:20:34.443Z,16.27
2022-10-17T19:23:01.815Z,19.10
2022-10-17T19:25:30.576Z,19.38
2022-10-17T19:27:58.372Z,22.08
2022-10-17T19:30:25.702Z,17.67
2022-10-17T19:32:53.007Z,21.45
2022-10-17T19:35:20.327Z,15.70
2022-10-17T19:37:47.569Z,16.90
2022-10-17T19:40:14.842Z,14.35
2022-10-17T19:42:42.117Z,19.60
2022-10-17T19:45:09.911Z,16.08
2022-10-17T19:47:37.233Z,15.55
2022-10-17T19:50:04.918Z,12.68
2022-10-17T19:52:32.590Z,15.98
2022-10-17T19:55:00.138Z,18.52
2022-10-17T19:57:27.514Z,12.65
2022-10-17T19:59:56.032Z,11.38
2022-10-17T20:02:23.487Z,13.27
2022-10-17T20:04:59.935Z,10.75
2022-10-17T20:07:37.961Z,18.95
2022-10-17T20:10:05.400Z,18.10
2022-10-17T20:12:33.070Z,14.52
2022-10-17T20:15:00.606Z,10.60
2022-10-17T20:17:28.083Z,10.60
2022-10-17T20:19:55.436Z,11.60
2022-10-17T20:22:22.666Z,10.38
2022-10-17T20:24:50.091Z,11.63
2022-10-17T20:27:18.056Z,9.23
2022-10-17T20:29:45.332Z,10.85
2022-10-17T20:32:12.574Z,12.82
2022-10-17T20:34:39.974Z,9.43
2022-10-17T20:37:07.227Z,9.05
2022-10-17T20:39:34.483Z,15.45
2022-10-17T20:42:01.730Z,11.77
2022-10-17T20:44:28.957Z,17.33
2022-10-17T20:47:02.175Z,8.32
2022-10-17T20:49:30.146Z,12.43
2022-10-17T20:51:57.568Z,15.27
2022-10-17T20:54:25.057Z,14.13
2022-10-17T20:56:52.345Z,12.85
2022-10-17T20:59:19.920Z,10.43
2022-10-17T21:01:47.814Z,11.38
2022-10-17T21:04:43.993Z,15.48
2022-10-17T21:07:02.634Z,13.20
2022-10-17T21:09:29.886Z,12.65
2022-10-17T21:11:57.273Z,14.73
2022-10-17T21:14:25.371Z,18.02
2022-10-17T21:16:52.659Z,13.48
2022-10-17T21:19:21.760Z,13.95
2022-10-17T21:21:49.171Z,12.75
2022-10-17T21:24:18.176Z,13.65
2022-10-17T21:26:46.468Z,17.58
2022-10-17T21:29:14.380Z,19.27
2022-10-17T21:31:42.273Z,16.45
2022-10-17T21:34:14.005Z,15.25
2022-10-17T21:36:41.712Z,19.15
2022-10-17T21:39:09.315Z,16.25
2022-10-17T21:41:36.542Z,17.85
2022-10-17T21:44:05.362Z,16.25
2022-10-17T21:46:33.122Z,19.77
2022-10-17T21:49:01.115Z,18.52
2022-10-17T21:51:28.420Z,17.67
2022-10-17T21:53:56.620Z,16.17
2022-10-17T21:56:25.409Z,14.13
2022-10-17T21:58:52.659Z,14.45
2022-10-17T22:01:21.442Z,14.18
2022-10-17T22:03:50.500Z,13.52
2022-10-17T22:06:38.833Z,16.40
2022-10-17T22:09:07.748Z,22.15
2022-10-17T22:11:35.656Z,14.95
2022-10-17T22:14:04.117Z,16.88
2022-10-17T22:16:31.608Z,13.13
2022-10-17T22:19:05.944Z,16.50
2022-10-17T22:21:34.341Z,16.25
2022-10-17T22:24:02.499Z,12.48
2022-10-17T22:26:31.083Z,15.05
2022-10-17T22:28:58.783Z,17.55
2022-10-17T22:31:26.162Z,13.85
2022-10-17T22:33:53.580Z,9.00
2022-10-17T22:36:20.930Z,13.15
2022-10-17T22:38:48.326Z,13.18
2022-10-17T22:41:15.561Z,13.63
2022-10-17T22:43:42.839Z,14.07
2022-10-17T22:46:13.020Z,8.55
2022-10-17T22:48:40.411Z,19.95
2022-10-17T22:51:07.897Z,56.35
2022-10-17T22:53:36.020Z,18.33
2022-10-17T22:56:04.820Z,15.82
2022-10-17T22:58:33.051Z,11.32
2022-10-17T23:01:00.628Z,13.45
2022-10-17T23:03:28.719Z,15.93
2022-10-17T23:05:56.753Z,13.73
2022-10-17T23:08:24.569Z,14.40
2022-10-17T23:10:51.870Z,17.33
2022-10-17T23:13:19.949Z,13.50
2022-10-17T23:15:47.326Z,11.23
2022-10-17T23:18:14.556Z,16.42
2022-10-17T23:20:41.827Z,16.13
2022-10-17T23:23:09.082Z,14.13
2022-10-17T23:25:36.357Z,14.40
2022-10-17T23:28:03.645Z,12.85
2022-10-17T23:30:32.766Z,13.82
2022-10-17T23:33:00.121Z,18.02
2022-10-17T23:35:27.413Z,20.17
2022-10-17T23:37:54.682Z,21.23
2022-10-17T23:40:21.939Z,23.80
2022-10-17T23:42:49.186Z,22.88
2022-10-17T23:45:16.607Z,23.25
2022-10-17T23:47:43.860Z,24.23
2022-10-17T23:50:19.864Z,23.13
2022-10-17T23:52:47.116Z,24.70
2022-10-17T23:55:14.437Z,23.50
2022-10-17T23:57:41.746Z,31.08
